createdAt,value
2017-05-17T00:02:27.647Z,5.10
2017-05-17T00:04:55.851Z,6.34
2017-05-17T00:07:24.068Z,4.68
2017-05-17T00:09:52.300Z,5.58
2017-05-17T00:12:20.516Z,4.92
2017-05-17T00:14:48.724Z,5.38
2017-05-17T00:17:17.752Z,5.94
2017-05-17T00:19:45.955Z,6.74
2017-05-17T00:22:14.163Z,5.34
2017-05-17T00:24:43.155Z,4.56
2017-05-17T00:27:11.360Z,5.40
2017-05-17T00:29:39.568Z,5.04
2017-05-17T00:32:07.803Z,5.36
2017-05-17T00:34:36.015Z,5.38
2017-05-17T00:37:16.132Z,5.56
2017-05-17T00:39:56.284Z,5.62
2017-05-17T00:42:36.427Z,6.90
2017-05-17T00:45:17.322Z,5.30
2017-05-17T00:47:57.494Z,7.22
2017-05-17T00:50:37.557Z,4.80
2017-05-17T00:53:05.779Z,5.24
2017-05-17T00:55:34.731Z,5.60
2017-05-17T00:58:02.934Z,5.78
2017-05-17T01:00:31.923Z,5.98
2017-05-17T01:03:00.876Z,6.86
2017-05-17T01:05:29.091Z,7.86
2017-05-17T01:07:58.064Z,5.60
2017-05-17T01:10:27.023Z,5.28
2017-05-17T01:12:55.226Z,5.12
2017-05-17T01:15:23.479Z,7.12
2017-05-17T01:17:51.675Z,8.94
2017-05-17T01:20:20.627Z,6.26
2017-05-17T01:22:48.866Z,5.76
2017-05-17T01:25:17.079Z,4.94
2017-05-17T01:27:45.291Z,5.80
2017-05-17T01:30:14.271Z,7.20
2017-05-17T01:32:42.483Z,6.92
2017-05-17T01:35:10.695Z,5.62
2017-05-17T01:37:38.927Z,5.90
2017-05-17T01:40:07.143Z,5.48
2017-05-17T01:42:35.347Z,5.96
2017-05-17T01:45:03.591Z,4.96
2017-05-17T01:47:31.795Z,5.68
2017-05-17T01:50:00.007Z,7.14
2017-05-17T01:52:28.235Z,7.18
2017-05-17T01:54:56.442Z,5.60
2017-05-17T01:57:24.657Z,7.60
2017-05-17T01:59:52.900Z,6.32
2017-05-17T02:02:21.111Z,5.82
2017-05-17T02:04:49.321Z,7.22
2017-05-17T02:07:18.288Z,6.90
2017-05-17T02:09:46.499Z,11.96
2017-05-17T02:12:15.455Z,10.36
2017-05-17T02:14:43.705Z,10.34
2017-05-17T02:17:11.923Z,10.62
2017-05-17T02:19:40.875Z,9.82
2017-05-17T02:22:09.103Z,7.76
2017-05-17T02:24:38.051Z,6.66
2017-05-17T02:27:06.260Z,5.52
2017-05-17T02:29:35.239Z,6.02
2017-05-17T02:32:03.448Z,5.84
2017-05-17T02:34:31.659Z,5.84
2017-05-17T02:36:59.897Z,5.56
2017-05-17T02:39:28.174Z,7.12
2017-05-17T02:41:56.384Z,5.16
2017-05-17T02:44:24.612Z,5.38
2017-05-17T02:46:52.832Z,6.16
2017-05-17T02:49:21.044Z,6.36
2017-05-17T02:51:50.031Z,9.76
2017-05-17T02:54:18.235Z,8.82
2017-05-17T02:56:46.443Z,10.76
2017-05-17T02:59:14.679Z,10.48
2017-05-17T03:01:42.896Z,10.18
2017-05-17T03:04:11.116Z,11.40
2017-05-17T03:06:40.107Z,11.60
2017-05-17T03:09:09.069Z,10.86
2017-05-17T03:11:37.280Z,10.18
2017-05-17T03:14:05.515Z,10.56
2017-05-17T03:16:33.723Z,10.38
2017-05-17T03:19:02.687Z,10.88
2017-05-17T03:21:30.916Z,11.92
2017-05-17T03:23:59.127Z,10.52
2017-05-17T03:26:27.343Z,12.22
2017-05-17T03:28:56.315Z,10.88
2017-05-17T03:31:25.274Z,10.86
2017-05-17T03:33:53.484Z,8.40
2017-05-17T03:36:22.471Z,7.78
2017-05-17T03:38:51.430Z,7.22
2017-05-17T03:41:19.636Z,6.76
2017-05-17T03:43:47.875Z,5.62
2017-05-17T03:46:16.085Z,5.16
2017-05-17T03:48:44.372Z,5.30
2017-05-17T03:51:13.344Z,6.54
2017-05-17T03:53:41.564Z,7.86
2017-05-17T03:56:09.774Z,5.96
2017-05-17T03:58:38.043Z,5.96
2017-05-17T04:01:06.247Z,6.12
2017-05-17T04:03:34.450Z,8.92
2017-05-17T04:06:02.700Z,10.28
2017-05-17T04:08:31.655Z,11.00
2017-05-17T04:10:59.867Z,12.36
2017-05-17T04:13:28.113Z,11.88
2017-05-17T04:15:56.328Z,11.36
2017-05-17T04:18:25.282Z,11.58
2017-05-17T04:20:53.519Z,13.12
2017-05-17T04:23:21.737Z,13.46
2017-05-17T04:25:49.939Z,9.98
2017-05-17T04:28:18.935Z,10.22
2017-05-17T04:30:47.887Z,9.50
2017-05-17T04:33:16.094Z,9.56
2017-05-17T04:35:44.339Z,8.68
2017-05-17T04:38:12.553Z,13.18
2017-05-17T04:40:41.515Z,9.30
2017-05-17T04:43:09.755Z,7.98
2017-05-17T04:45:37.968Z,9.70
2017-05-17T04:48:06.175Z,11.48
2017-05-17T04:50:35.151Z,9.76
2017-05-17T04:53:03.359Z,9.86
2017-05-17T04:55:31.573Z,9.14
2017-05-17T04:57:59.820Z,9.40
2017-05-17T05:00:28.029Z,9.86
2017-05-17T05:02:56.240Z,9.70
2017-05-17T05:05:25.222Z,9.94
2017-05-17T05:07:54.175Z,9.46
2017-05-17T05:10:22.385Z,9.12
2017-05-17T05:12:50.614Z,11.76
2017-05-17T05:15:18.864Z,7.90
2017-05-17T05:17:47.095Z,7.58
2017-05-17T05:20:15.340Z,6.92
2017-05-17T05:22:43.707Z,7.08
2017-05-17T05:25:11.962Z,9.34
2017-05-17T05:27:40.175Z,8.32
2017-05-17T05:30:08.384Z,10.28
2017-05-17T05:32:37.340Z,7.90
2017-05-17T05:35:05.573Z,11.16
2017-05-17T05:37:33.788Z,7.10
2017-05-17T05:40:01.996Z,7.96
2017-05-17T05:42:31.059Z,5.54
2017-05-17T05:44:59.267Z,8.88
2017-05-17T05:47:28.224Z,10.54
2017-05-17T05:49:56.460Z,8.32
2017-05-17T05:52:25.448Z,9.40
2017-05-17T05:54:53.623Z,6.06
2017-05-17T05:57:22.607Z,10.60
2017-05-17T05:59:51.568Z,9.00
2017-05-17T06:02:19.774Z,7.88
2017-05-17T06:04:48.764Z,8.36
2017-05-17T06:07:17.715Z,6.56
2017-05-17T06:09:45.924Z,9.22
2017-05-17T06:12:14.908Z,8.36
2017-05-17T06:14:43.859Z,6.62
2017-05-17T06:17:12.072Z,11.24
2017-05-17T06:19:41.060Z,7.94
2017-05-17T06:22:10.016Z,7.78
2017-05-17T06:24:38.227Z,5.80
2017-05-17T06:27:07.219Z,5.54
2017-05-17T06:29:36.176Z,6.22
2017-05-17T06:32:04.408Z,4.18
2017-05-17T06:34:32.635Z,11.10
2017-05-17T06:37:00.850Z,4.32
2017-05-17T06:39:29.804Z,4.40
2017-05-17T06:41:58.010Z,4.52
2017-05-17T06:44:26.227Z,4.90
2017-05-17T06:46:54.431Z,4.62
2017-05-17T06:49:22.648Z,5.78
2017-05-17T06:51:50.860Z,4.48
2017-05-17T06:54:19.069Z,7.48
2017-05-17T06:56:48.428Z,4.20
2017-05-17T06:59:16.660Z,5.72
2017-05-17T07:01:45.615Z,10.12
2017-05-17T07:04:13.819Z,5.88
2017-05-17T07:06:42.779Z,6.70
2017-05-17T07:09:10.987Z,6.98
2017-05-17T07:11:39.219Z,5.64
2017-05-17T07:14:07.423Z,5.16
2017-05-17T07:16:36.379Z,5.48
2017-05-17T07:19:04.591Z,5.18
2017-05-17T07:21:33.548Z,4.54
2017-05-17T07:24:01.752Z,6.28
2017-05-17T07:26:30.710Z,4.54
2017-05-17T07:28:58.915Z,7.38
2017-05-17T07:31:27.879Z,7.12
2017-05-17T07:33:56.084Z,4.72
2017-05-17T07:36:25.037Z,5.46
2017-05-17T07:38:53.257Z,7.76
2017-05-17T07:41:21.485Z,6.76
2017-05-17T07:43:49.696Z,4.18
2017-05-17T07:46:18.651Z,7.20
2017-05-17T07:48:46.865Z,6.26
2017-05-17T07:51:15.819Z,5.04
2017-05-17T07:53:44.031Z,7.14
2017-05-17T07:56:12.979Z,8.68
2017-05-17T07:58:41.195Z,3.88
2017-05-17T08:01:10.196Z,7.68
2017-05-17T08:03:39.155Z,4.20
2017-05-17T08:06:07.368Z,4.48
2017-05-17T08:08:36.320Z,5.22
2017-05-17T08:11:04.532Z,5.72
2017-05-17T08:13:33.503Z,8.02
2017-05-17T08:16:02.464Z,5.76
2017-05-17T08:18:30.671Z,5.96
2017-05-17T08:20:59.624Z,4.48
2017-05-17T08:23:27.836Z,6.28
2017-05-17T08:25:56.792Z,6.24
2017-05-17T08:28:25.005Z,5.48
2017-05-17T08:30:54.466Z,6.74
2017-05-17T08:33:22.680Z,8.36
2017-05-17T08:35:51.636Z,4.42
2017-05-17T08:38:19.843Z,3.20
2017-05-17T08:40:48.818Z,5.74
2017-05-17T08:43:17.026Z,6.58
2017-05-17T08:45:45.979Z,3.12
2017-05-17T08:48:14.191Z,8.56
2017-05-17T08:50:43.144Z,3.94
2017-05-17T08:53:11.359Z,4.10
2017-05-17T08:55:39.579Z,8.84
2017-05-17T08:58:07.795Z,3.70
2017-05-17T09:00:36.772Z,2.46
2017-05-17T09:03:05.084Z,3.26
2017-05-17T09:05:33.548Z,3.28
2017-05-17T09:08:02.500Z,3.58
2017-05-17T09:10:30.704Z,5.94
2017-05-17T09:12:59.660Z,4.00
2017-05-17T09:15:27.882Z,4.12
2017-05-17T09:17:56.849Z,5.08
2017-05-17T09:20:25.056Z,5.20
2017-05-17T09:22:53.267Z,10.60
2017-05-17T09:25:21.479Z,11.94
2017-05-17T09:27:50.436Z,6.60
2017-05-17T09:30:18.643Z,3.26
2017-05-17T09:32:47.599Z,4.88
2017-05-17T09:35:15.811Z,3.30
2017-05-17T09:37:44.763Z,4.30
2017-05-17T09:40:12.992Z,4.88
2017-05-17T09:42:41.944Z,7.54
2017-05-17T09:45:10.152Z,7.02
2017-05-17T09:47:39.121Z,3.92
2017-05-17T09:50:07.323Z,3.30
2017-05-17T09:52:35.544Z,5.02
2017-05-17T09:55:03.756Z,3.80
2017-05-17T09:57:32.712Z,2.26
2017-05-17T10:00:00.924Z,3.22
2017-05-17T10:02:29.891Z,6.04
2017-05-17T10:04:58.106Z,4.14
2017-05-17T10:07:26.339Z,4.20
2017-05-17T10:09:54.548Z,4.00
2017-05-17T10:12:22.763Z,4.80
2017-05-17T10:14:50.985Z,4.24
2017-05-17T10:17:19.936Z,2.58
2017-05-17T10:19:48.153Z,4.90
2017-05-17T10:22:17.099Z,2.92
2017-05-17T10:24:45.320Z,5.24
2017-05-17T10:27:14.275Z,7.74
2017-05-17T10:29:42.493Z,2.74
2017-05-17T10:32:10.708Z,2.78
2017-05-17T10:34:38.923Z,3.90
2017-05-17T10:37:07.874Z,4.02
2017-05-17T10:39:36.104Z,7.62
2017-05-17T10:42:04.323Z,3.38
2017-05-17T10:44:32.532Z,4.48
2017-05-17T10:47:01.492Z,3.30
2017-05-17T10:49:29.699Z,7.08
2017-05-17T10:51:58.651Z,4.88
2017-05-17T10:54:26.855Z,4.98
2017-05-17T10:56:55.067Z,3.02
2017-05-17T10:59:23.275Z,2.68
2017-05-17T11:01:51.482Z,3.76
2017-05-17T11:04:20.439Z,2.92
2017-05-17T11:06:49.490Z,3.12
2017-05-17T11:09:18.436Z,3.26
2017-05-17T11:11:46.671Z,3.62
2017-05-17T11:14:14.880Z,2.30
2017-05-17T11:16:43.087Z,5.84
2017-05-17T11:19:12.048Z,5.66
2017-05-17T11:21:40.263Z,3.36
2017-05-17T11:24:09.216Z,4.82
2017-05-17T11:26:37.423Z,3.50
2017-05-17T11:29:06.375Z,2.48
2017-05-17T11:31:34.580Z,4.04
2017-05-17T11:34:03.538Z,3.02
2017-05-17T11:36:31.759Z,3.36
2017-05-17T11:39:00.711Z,2.42
2017-05-17T11:41:28.919Z,2.40
2017-05-17T11:43:57.879Z,4.18
2017-05-17T11:46:26.087Z,2.30
2017-05-17T11:48:55.040Z,2.42
2017-05-17T11:51:23.247Z,4.56
2017-05-17T11:53:52.203Z,6.72
2017-05-17T11:56:20.411Z,4.24
2017-05-17T11:58:49.389Z,2.38
2017-05-17T12:01:18.352Z,4.26
2017-05-17T12:03:46.563Z,5.66
2017-05-17T12:06:14.776Z,4.26
2017-05-17T12:08:42.995Z,4.74
2017-05-17T12:11:11.213Z,5.62
2017-05-17T12:13:39.419Z,4.08
2017-05-17T12:16:07.635Z,3.92
2017-05-17T12:18:36.223Z,7.38
2017-05-17T12:21:05.186Z,5.16
2017-05-17T12:23:33.388Z,6.60
2017-05-17T12:26:01.615Z,5.44
2017-05-17T12:28:29.823Z,3.02
2017-05-17T12:30:58.783Z,3.48
2017-05-17T12:33:26.992Z,4.76
2017-05-17T12:35:55.947Z,3.38
2017-05-17T12:38:24.161Z,3.58
2017-05-17T12:40:53.112Z,4.64
2017-05-17T12:43:21.320Z,5.44
2017-05-17T12:45:50.279Z,4.16
2017-05-17T12:48:18.492Z,3.42
2017-05-17T12:50:47.454Z,5.32
2017-05-17T12:53:15.672Z,7.46
2017-05-17T12:55:43.892Z,6.50
2017-05-17T12:58:12.117Z,5.62
2017-05-17T13:00:41.058Z,3.92
2017-05-17T13:03:09.276Z,6.18
2017-05-17T13:05:38.224Z,10.58
2017-05-17T13:08:06.455Z,3.24
2017-05-17T13:10:34.667Z,2.80
2017-05-17T13:13:02.881Z,2.98
2017-05-17T13:15:31.850Z,4.28
2017-05-17T13:18:00.055Z,6.76
2017-05-17T13:20:29.024Z,3.90
2017-05-17T13:22:57.232Z,4.76
2017-05-17T13:25:25.447Z,3.94
2017-05-17T13:27:53.656Z,3.56
2017-05-17T13:30:22.619Z,4.24
2017-05-17T13:32:50.823Z,3.68
2017-05-17T13:35:19.778Z,6.42
2017-05-17T13:37:47.988Z,3.12
2017-05-17T13:40:16.959Z,3.78
2017-05-17T13:42:45.167Z,2.80
2017-05-17T13:45:14.139Z,5.28
2017-05-17T13:47:43.104Z,5.10
2017-05-17T13:50:11.319Z,4.44
2017-05-17T13:52:40.271Z,4.70
2017-05-17T13:55:08.487Z,3.16
2017-05-17T13:57:37.447Z,4.42
2017-05-17T14:00:05.651Z,3.28
2017-05-17T14:02:34.611Z,3.36
2017-05-17T14:05:02.819Z,6.80
2017-05-17T14:07:31.789Z,3.96
2017-05-17T14:10:00.755Z,4.52
2017-05-17T14:12:29.032Z,3.32
2017-05-17T14:14:57.241Z,3.26
2017-05-17T14:17:26.204Z,2.92
2017-05-17T14:19:54.415Z,4.68
2017-05-17T14:22:23.397Z,5.40
2017-05-17T14:24:52.354Z,4.30
2017-05-17T14:27:20.577Z,2.68
2017-05-17T14:29:49.526Z,3.36
2017-05-17T14:32:17.738Z,2.20
2017-05-17T14:34:46.692Z,3.06
2017-05-17T14:37:14.902Z,4.96
2017-05-17T14:39:43.947Z,5.64
2017-05-17T14:42:12.156Z,2.50
2017-05-17T14:44:40.363Z,4.46
2017-05-17T14:47:08.593Z,2.42
2017-05-17T14:49:36.805Z,2.72
2017-05-17T14:52:05.021Z,4.26
2017-05-17T14:54:33.236Z,3.94
2017-05-17T14:57:02.190Z,3.92
2017-05-17T14:59:30.403Z,2.66
2017-05-17T15:01:59.360Z,3.82
2017-05-17T15:04:27.571Z,2.32
2017-05-17T15:06:56.519Z,4.90
2017-05-17T15:09:24.736Z,4.10
2017-05-17T15:11:53.685Z,7.28
2017-05-17T15:14:21.900Z,2.92
2017-05-17T15:16:50.866Z,2.58
2017-05-17T15:19:19.068Z,4.90
2017-05-17T15:21:48.043Z,8.20
2017-05-17T15:24:16.259Z,4.88
2017-05-17T15:26:44.484Z,3.22
2017-05-17T15:29:12.695Z,3.14
2017-05-17T15:31:40.911Z,3.12
2017-05-17T15:34:09.120Z,3.44
2017-05-17T15:36:38.078Z,2.68
2017-05-17T15:39:06.295Z,4.40
2017-05-17T15:41:35.243Z,3.72
2017-05-17T15:44:03.459Z,2.76
2017-05-17T15:46:32.407Z,2.92
2017-05-17T15:49:00.624Z,4.24
2017-05-17T15:51:29.572Z,3.06
2017-05-17T15:53:57.784Z,3.40
2017-05-17T15:56:26.735Z,3.62
2017-05-17T15:58:54.955Z,2.46
2017-05-17T16:01:23.912Z,1.94
2017-05-17T16:03:52.121Z,3.00
2017-05-17T16:06:21.067Z,4.58
2017-05-17T16:08:49.295Z,2.10
2017-05-17T16:11:17.496Z,3.80
2017-05-17T16:13:45.713Z,4.06
2017-05-17T16:16:13.924Z,3.10
2017-05-17T16:18:42.134Z,4.66
2017-05-17T16:21:10.356Z,3.30
2017-05-17T16:23:39.300Z,4.82
2017-05-17T16:26:07.516Z,2.10
2017-05-17T16:28:36.488Z,6.20
2017-05-17T16:31:04.704Z,6.48
2017-05-17T16:33:32.911Z,3.42
2017-05-17T16:36:01.126Z,4.30
2017-05-17T16:38:30.080Z,3.40
2017-05-17T16:40:58.316Z,4.20
2017-05-17T16:43:26.526Z,4.74
2017-05-17T16:45:54.740Z,2.72
2017-05-17T16:48:23.696Z,2.36
2017-05-17T16:50:51.903Z,4.10
2017-05-17T16:53:20.858Z,3.02
2017-05-17T16:55:49.067Z,5.88
2017-05-17T16:58:17.281Z,4.94
2017-05-17T17:00:46.238Z,3.36
2017-05-17T17:03:14.451Z,2.32
2017-05-17T17:05:42.662Z,2.50
2017-05-17T17:08:10.880Z,2.76
2017-05-17T17:10:39.832Z,6.38
2017-05-17T17:13:08.048Z,5.40
2017-05-17T17:15:36.995Z,3.28
2017-05-17T17:18:05.227Z,3.34
2017-05-17T17:20:33.448Z,2.34
2017-05-17T17:23:01.656Z,2.62
2017-05-17T17:25:30.607Z,4.16
2017-05-17T17:27:58.819Z,3.98
2017-05-17T17:30:27.776Z,4.22
2017-05-17T17:32:55.984Z,5.10
2017-05-17T17:35:24.939Z,3.38
2017-05-17T17:37:53.148Z,5.22
2017-05-17T17:40:22.115Z,2.42
2017-05-17T17:42:50.315Z,10.84
2017-05-17T17:45:19.275Z,3.76
2017-05-17T17:47:47.479Z,3.68
2017-05-17T17:50:16.451Z,2.88
2017-05-17T17:52:44.656Z,3.46
2017-05-17T17:55:13.608Z,10.60
2017-05-17T17:57:41.821Z,3.62
2017-05-17T18:00:10.771Z,2.74
2017-05-17T18:02:38.984Z,2.98
2017-05-17T18:05:07.216Z,7.74
2017-05-17T18:07:35.427Z,5.70
2017-05-17T18:10:04.378Z,3.70
2017-05-17T18:12:32.595Z,16.78
2017-05-17T18:15:01.543Z,2.80
2017-05-17T18:17:29.760Z,6.76
2017-05-17T18:19:58.714Z,4.44
2017-05-17T18:22:26.931Z,2.56
2017-05-17T18:24:55.875Z,2.60
2017-05-17T18:27:24.105Z,4.64
2017-05-17T18:29:52.341Z,4.52
2017-05-17T18:32:20.553Z,2.22
2017-05-17T18:34:49.499Z,2.98
2017-05-17T18:37:17.712Z,5.96
2017-05-17T18:39:46.676Z,2.70
2017-05-17T18:42:14.892Z,7.22
2017-05-17T18:44:43.109Z,3.40
2017-05-17T18:47:11.324Z,3.10
2017-05-17T18:49:40.291Z,2.86
2017-05-17T18:52:08.508Z,4.36
2017-05-17T18:54:36.729Z,5.22
2017-05-17T18:57:04.942Z,3.44
2017-05-17T18:59:33.167Z,3.78
2017-05-17T19:02:01.371Z,4.12
2017-05-17T19:04:30.331Z,4.60
2017-05-17T19:06:58.546Z,3.50
2017-05-17T19:09:27.495Z,2.98
2017-05-17T19:11:55.708Z,3.04
2017-05-17T19:14:24.660Z,7.46
2017-05-17T19:16:52.880Z,4.26
2017-05-17T19:19:21.116Z,3.12
2017-05-17T19:21:50.078Z,3.50
2017-05-17T19:24:18.300Z,3.44
2017-05-17T19:26:46.542Z,3.06
2017-05-17T19:29:14.751Z,3.32
2017-05-17T19:31:42.959Z,5.22
2017-05-17T19:34:11.179Z,3.70
2017-05-17T19:36:40.124Z,9.48
2017-05-17T19:39:08.427Z,3.34
2017-05-17T19:41:36.639Z,8.62
2017-05-17T19:44:07.173Z,5.82
2017-05-17T19:46:36.188Z,5.52
2017-05-17T19:49:04.785Z,3.48
2017-05-17T19:51:33.031Z,4.20
2017-05-17T19:54:01.248Z,4.48
2017-05-17T19:56:30.557Z,3.94
2017-05-17T19:58:58.799Z,3.86
2017-05-17T20:01:27.779Z,4.76
2017-05-17T20:03:57.419Z,3.38
2017-05-17T20:06:25.639Z,4.32
2017-05-17T20:08:53.856Z,4.14
2017-05-17T20:11:22.071Z,6.74
2017-05-17T20:13:50.293Z,4.38
2017-05-17T20:16:18.537Z,4.44
2017-05-17T20:18:46.739Z,5.66
2017-05-17T20:21:15.707Z,4.98
2017-05-17T20:23:43.921Z,4.60
2017-05-17T20:26:12.153Z,5.62
2017-05-17T20:28:40.368Z,5.32
2017-05-17T20:31:08.583Z,4.72
2017-05-17T20:33:36.803Z,8.60
2017-05-17T20:36:05.759Z,4.74
2017-05-17T20:38:33.977Z,5.20
2017-05-17T20:41:02.241Z,5.88
2017-05-17T20:43:30.426Z,5.50
2017-05-17T20:45:58.648Z,4.92
2017-05-17T20:48:26.859Z,4.52
2017-05-17T20:50:55.823Z,5.92
2017-05-17T20:53:24.035Z,8.94
2017-05-17T20:55:52.254Z,4.62
2017-05-17T20:58:20.467Z,4.70
2017-05-17T21:00:49.429Z,4.26
2017-05-17T21:03:17.655Z,4.98
2017-05-17T21:05:45.867Z,4.30
2017-05-17T21:08:14.079Z,7.16
2017-05-17T21:10:43.032Z,4.26
2017-05-17T21:13:11.244Z,7.84
2017-05-17T21:15:40.214Z,5.40
2017-05-17T21:18:08.448Z,7.30
2017-05-17T21:20:36.667Z,4.34
2017-05-17T21:23:04.875Z,5.06
2017-05-17T21:25:33.101Z,6.56
2017-05-17T21:28:01.308Z,5.42
2017-05-17T21:30:30.271Z,7.42
2017-05-17T21:32:58.479Z,4.22
2017-05-17T21:35:27.440Z,6.04
2017-05-17T21:37:55.651Z,3.32
2017-05-17T21:40:24.612Z,4.40
2017-05-17T21:42:52.828Z,3.80
2017-05-17T21:45:21.043Z,3.12
2017-05-17T21:47:49.256Z,5.24
2017-05-17T21:50:18.204Z,4.30
2017-05-17T21:52:46.423Z,3.52
2017-05-17T21:55:15.393Z,4.94
2017-05-17T21:57:43.608Z,4.78
2017-05-17T22:00:11.815Z,2.90
2017-05-17T22:02:40.040Z,3.42
2017-05-17T22:05:08.996Z,3.06
2017-05-17T22:07:37.215Z,4.52
2017-05-17T22:10:05.428Z,6.14
2017-05-17T22:12:33.644Z,2.88
2017-05-17T22:15:02.595Z,3.46
2017-05-17T22:17:30.815Z,2.66
2017-05-17T22:19:59.763Z,3.10
2017-05-17T22:22:28.046Z,3.16
2017-05-17T22:24:56.346Z,3.28
2017-05-17T22:27:25.004Z,2.96
2017-05-17T22:29:53.229Z,4.62
2017-05-17T22:32:21.440Z,3.28
2017-05-17T22:34:49.655Z,3.66
2017-05-17T22:37:17.863Z,7.14
2017-05-17T22:39:46.819Z,4.60
2017-05-17T22:42:16.732Z,5.10
2017-05-17T22:44:44.977Z,4.86
2017-05-17T22:47:13.185Z,6.74
2017-05-17T22:49:41.404Z,4.70
2017-05-17T22:52:10.362Z,8.00
2017-05-17T22:54:38.576Z,6.12
2017-05-17T22:57:06.799Z,8.52
2017-05-17T22:59:35.007Z,7.36
2017-05-17T23:02:03.968Z,9.06
2017-05-17T23:04:32.175Z,5.62
2017-05-17T23:07:01.128Z,6.32
2017-05-17T23:09:29.336Z,4.12
2017-05-17T23:11:58.295Z,7.28
2017-05-17T23:14:26.511Z,4.08
2017-05-17T23:16:55.471Z,3.70
2017-05-17T23:19:23.675Z,3.78
2017-05-17T23:21:52.632Z,4.14
2017-05-17T23:24:20.848Z,3.50
2017-05-17T23:26:50.488Z,5.56
2017-05-17T23:29:18.704Z,4.00
2017-05-17T23:31:46.917Z,3.40
2017-05-17T23:34:15.148Z,3.92
2017-05-17T23:36:43.348Z,3.58
2017-05-17T23:39:12.309Z,3.90
2017-05-17T23:41:40.518Z,4.02
2017-05-17T23:44:09.468Z,4.18
2017-05-17T23:46:37.679Z,3.90
2017-05-17T23:49:06.641Z,6.30
2017-05-17T23:51:34.843Z,3.46
2017-05-17T23:54:03.824Z,6.34
2017-05-17T23:56:32.779Z,3.58
2017-05-17T23:59:00.989Z,3.22
